createdAt,value
2018-11-28T00:00:11.495Z,4.16
2018-11-28T00:02:39.694Z,4.14
2018-11-28T00:05:10.611Z,4.08
2018-11-28T00:07:38.524Z,4.08
2018-11-28T00:10:09.642Z,4.02
2018-11-28T00:12:38.190Z,3.96
2018-11-28T00:15:07.162Z,3.99
2018-11-28T00:17:35.344Z,3.92
2018-11-28T00:20:03.299Z,4.03
2018-11-28T00:22:31.173Z,3.94
2018-11-28T00:24:59.073Z,3.85
2018-11-28T00:27:26.991Z,3.96
2018-11-28T00:29:54.890Z,4.02
2018-11-28T00:32:22.829Z,3.99
2018-11-28T00:34:50.738Z,4.00
2018-11-28T00:37:18.658Z,4.11
2018-11-28T00:39:46.558Z,3.90
2018-11-28T00:42:14.454Z,4.03
2018-11-28T00:44:42.349Z,4.07
2018-11-28T00:47:10.237Z,3.95
2018-11-28T00:49:38.149Z,4.16
2018-11-28T00:52:06.037Z,4.04
2018-11-28T00:54:33.961Z,4.09
2018-11-28T00:57:01.863Z,4.16
2018-11-28T00:59:29.769Z,4.20
2018-11-28T01:01:57.689Z,4.10
2018-11-28T01:04:25.602Z,4.18
2018-11-28T01:06:53.509Z,4.17
2018-11-28T01:09:21.510Z,4.17
2018-11-28T01:11:49.397Z,4.10
2018-11-28T01:14:17.346Z,4.08
2018-11-28T01:16:45.249Z,4.15
2018-11-28T01:19:13.164Z,4.15
2018-11-28T01:21:41.358Z,4.18
2018-11-28T01:24:09.269Z,4.23
2018-11-28T01:26:37.169Z,4.20
2018-11-28T01:29:05.933Z,4.09
2018-11-28T01:31:33.822Z,4.00
2018-11-28T01:34:01.701Z,4.16
2018-11-28T01:36:29.617Z,4.19
2018-11-28T01:38:57.529Z,4.18
2018-11-28T01:41:25.438Z,4.03
2018-11-28T01:43:53.362Z,4.13
2018-11-28T01:46:21.258Z,4.22
2018-11-28T01:48:49.167Z,4.18
2018-11-28T01:51:17.095Z,4.35
2018-11-28T01:53:44.969Z,4.29
2018-11-28T01:56:12.906Z,4.36
2018-11-28T01:58:40.846Z,4.37
2018-11-28T02:01:08.771Z,4.46
2018-11-28T02:03:36.662Z,4.40
2018-11-28T02:06:04.833Z,4.36
2018-11-28T02:08:32.725Z,4.39
2018-11-28T02:11:00.617Z,4.45
2018-11-28T02:13:28.517Z,4.41
2018-11-28T02:15:56.422Z,4.27
2018-11-28T02:18:24.362Z,4.49
2018-11-28T02:20:52.305Z,4.48
2018-11-28T02:23:20.193Z,4.44
2018-11-28T02:25:48.117Z,4.43
2018-11-28T02:28:16.021Z,4.52
2018-11-28T02:30:43.942Z,4.42
2018-11-28T02:33:11.903Z,4.34
2018-11-28T02:35:39.792Z,4.52
2018-11-28T02:38:07.707Z,4.46
2018-11-28T02:40:35.611Z,4.49
2018-11-28T02:43:03.509Z,4.50
2018-11-28T02:45:31.434Z,4.58
2018-11-28T02:47:59.312Z,4.53
2018-11-28T02:50:27.217Z,4.58
2018-11-28T02:52:55.118Z,4.48
2018-11-28T02:55:23.033Z,4.51
2018-11-28T02:57:50.958Z,4.46
2018-11-28T03:00:20.038Z,4.50
2018-11-28T03:02:47.928Z,4.55
2018-11-28T03:05:15.838Z,4.48
2018-11-28T03:07:43.763Z,4.56
2018-11-28T03:10:12.931Z,4.66
2018-11-28T03:12:40.841Z,4.70
2018-11-28T03:15:11.922Z,4.68
2018-11-28T03:17:39.837Z,4.70
2018-11-28T03:20:09.193Z,4.71
2018-11-28T03:22:37.094Z,4.81
2018-11-28T03:25:06.117Z,4.86
2018-11-28T03:27:34.013Z,4.71
2018-11-28T03:30:01.952Z,4.81
2018-11-28T03:32:29.838Z,4.84
2018-11-28T03:34:57.728Z,4.93
2018-11-28T03:37:25.647Z,5.01
2018-11-28T03:39:53.573Z,4.92
2018-11-28T03:42:21.598Z,4.99
2018-11-28T03:44:49.430Z,5.03
2018-11-28T03:47:17.334Z,5.13
2018-11-28T03:49:45.254Z,5.04
2018-11-28T03:52:13.139Z,5.05
2018-11-28T03:54:41.078Z,5.17
2018-11-28T03:57:08.986Z,5.06
2018-11-28T03:59:36.866Z,5.23
2018-11-28T04:02:05.182Z,5.24
2018-11-28T04:04:33.086Z,5.16
2018-11-28T04:07:00.967Z,5.18
2018-11-28T04:09:28.859Z,5.17
2018-11-28T04:11:56.766Z,5.18
2018-11-28T04:14:24.673Z,5.24
2018-11-28T04:16:52.572Z,5.16
2018-11-28T04:19:20.453Z,5.14
2018-11-28T04:21:48.394Z,5.08
2018-11-28T04:24:16.371Z,5.14
2018-11-28T04:26:44.275Z,5.18
2018-11-28T04:29:12.184Z,5.15
2018-11-28T04:31:40.186Z,5.04
2018-11-28T04:34:08.078Z,5.08
2018-11-28T04:36:35.974Z,5.11
2018-11-28T04:39:05.558Z,5.05
2018-11-28T04:41:33.493Z,5.17
2018-11-28T04:44:01.418Z,5.05
2018-11-28T04:46:29.314Z,5.23
2018-11-28T04:48:57.225Z,5.19
2018-11-28T04:51:25.124Z,5.15
2018-11-28T04:53:53.095Z,5.18
2018-11-28T04:56:21.004Z,5.21
2018-11-28T04:58:48.912Z,5.17
2018-11-28T05:01:16.822Z,5.23
2018-11-28T05:03:44.793Z,5.15
2018-11-28T05:06:25.690Z,5.15
2018-11-28T05:08:53.782Z,5.18
2018-11-28T05:11:21.676Z,5.17
2018-11-28T05:13:49.601Z,5.21
2018-11-28T05:16:17.533Z,5.22
2018-11-28T05:18:45.447Z,5.18
2018-11-28T05:21:13.370Z,5.17
2018-11-28T05:23:41.291Z,5.22
2018-11-28T05:26:09.193Z,5.25
2018-11-28T05:28:37.121Z,5.24
2018-11-28T05:31:05.262Z,5.20
2018-11-28T05:33:33.178Z,5.25
2018-11-28T05:36:01.070Z,5.35
2018-11-28T05:38:29.333Z,5.33
2018-11-28T05:40:57.245Z,5.30
2018-11-28T05:43:25.162Z,5.21
2018-11-28T05:45:53.069Z,5.27
2018-11-28T05:48:20.968Z,5.23
2018-11-28T05:50:48.886Z,5.29
2018-11-28T05:53:16.796Z,5.24
2018-11-28T05:55:44.772Z,5.23
2018-11-28T05:58:12.659Z,5.32
2018-11-28T06:00:41.209Z,5.35
2018-11-28T06:03:11.073Z,5.31
2018-11-28T06:05:39.873Z,5.34
2018-11-28T06:08:08.005Z,5.39
2018-11-28T06:10:36.013Z,5.48
2018-11-28T06:13:04.050Z,5.43
2018-11-28T06:15:31.967Z,5.41
2018-11-28T06:17:59.862Z,5.33
2018-11-28T06:20:27.767Z,5.23
2018-11-28T06:22:55.690Z,5.41
2018-11-28T06:25:23.574Z,5.37
2018-11-28T06:27:51.522Z,5.44
2018-11-28T06:30:20.284Z,5.51
2018-11-28T06:32:51.244Z,5.55
2018-11-28T06:35:16.101Z,5.56
2018-11-28T06:37:44.230Z,5.62
2018-11-28T06:40:13.178Z,5.62
2018-11-28T06:42:41.065Z,5.57
2018-11-28T06:45:10.514Z,5.49
2018-11-28T06:47:38.469Z,5.56
2018-11-28T06:50:09.730Z,5.60
2018-11-28T06:52:37.654Z,5.56
2018-11-28T06:55:07.694Z,5.60
2018-11-28T06:57:35.594Z,5.61
2018-11-28T07:00:04.070Z,5.73
2018-11-28T07:02:31.965Z,5.75
2018-11-28T07:04:59.873Z,5.67
2018-11-28T07:07:27.757Z,5.65
2018-11-28T07:09:55.638Z,5.65
2018-11-28T07:12:23.581Z,5.74
2018-11-28T07:14:51.471Z,5.77
2018-11-28T07:17:19.357Z,5.75
2018-11-28T07:19:47.265Z,5.73
2018-11-28T07:22:15.161Z,5.77
2018-11-28T07:24:43.061Z,5.93
2018-11-28T07:27:10.970Z,5.91
2018-11-28T07:29:38.873Z,5.85
2018-11-28T07:32:06.806Z,5.90
2018-11-28T07:34:34.757Z,5.85
2018-11-28T07:37:02.675Z,5.79
2018-11-28T07:39:30.617Z,5.88
2018-11-28T07:41:58.518Z,6.06
2018-11-28T07:44:26.428Z,6.03
2018-11-28T07:46:54.415Z,6.05
2018-11-28T07:49:22.302Z,6.13
2018-11-28T07:51:50.234Z,6.10
2018-11-28T07:54:18.118Z,6.14
2018-11-28T07:56:46.022Z,6.05
2018-11-28T07:59:13.913Z,6.13
2018-11-28T08:01:41.833Z,6.20
2018-11-28T08:04:09.746Z,6.24
2018-11-28T08:06:37.849Z,6.17
2018-11-28T08:09:07.436Z,6.16
2018-11-28T08:11:35.285Z,6.19
2018-11-28T08:14:03.185Z,6.28
2018-11-28T08:16:31.090Z,6.32
2018-11-28T08:18:59.016Z,6.14
2018-11-28T08:21:26.893Z,6.20
2018-11-28T08:23:54.789Z,6.33
2018-11-28T08:26:22.699Z,6.47
2018-11-28T08:28:51.474Z,6.55
2018-11-28T08:31:19.394Z,6.53
2018-11-28T08:33:47.289Z,6.45
2018-11-28T08:36:15.202Z,6.54
2018-11-28T08:38:43.085Z,6.69
2018-11-28T08:41:10.975Z,6.77
2018-11-28T08:43:38.889Z,6.62
2018-11-28T08:46:06.798Z,6.78
2018-11-28T08:48:34.728Z,6.93
2018-11-28T08:51:02.609Z,7.04
2018-11-28T08:53:30.517Z,7.15
2018-11-28T08:55:58.423Z,7.19
2018-11-28T08:58:26.320Z,7.17
2018-11-28T09:00:54.201Z,7.18
2018-11-28T09:03:22.109Z,7.19
2018-11-28T09:05:49.989Z,7.28
2018-11-28T09:08:17.886Z,7.23
2018-11-28T09:10:45.789Z,7.39
2018-11-28T09:13:13.707Z,7.44
2018-11-28T09:15:41.622Z,7.40
2018-11-28T09:18:09.516Z,7.51
2018-11-28T09:20:37.440Z,7.56
2018-11-28T09:23:06.526Z,7.53
2018-11-28T09:25:34.403Z,7.54
2018-11-28T09:28:02.321Z,7.59
2018-11-28T09:30:30.217Z,7.58
2018-11-28T09:32:58.106Z,7.39
2018-11-28T09:35:26.018Z,7.27
2018-11-28T09:37:53.909Z,7.28
2018-11-28T09:40:25.732Z,7.42
2018-11-28T09:42:54.771Z,7.66
2018-11-28T09:45:22.661Z,7.65
2018-11-28T09:47:50.563Z,7.60
2018-11-28T09:50:20.444Z,7.82
2018-11-28T09:52:48.345Z,7.96
2018-11-28T09:55:19.142Z,8.04
2018-11-28T09:57:47.070Z,8.12
2018-11-28T10:00:16.586Z,8.10
2018-11-28T10:02:44.553Z,8.33
2018-11-28T10:05:13.877Z,8.18
2018-11-28T10:07:41.850Z,8.23
2018-11-28T10:10:11.021Z,8.18
2018-11-28T10:12:38.942Z,8.26
2018-11-28T10:15:11.764Z,8.21
2018-11-28T10:17:39.755Z,7.86
2018-11-28T10:20:08.820Z,8.00
2018-11-28T10:22:36.737Z,7.99
2018-11-28T10:25:05.515Z,8.01
2018-11-28T10:27:33.516Z,8.13
2018-11-28T10:30:01.385Z,8.45
2018-11-28T10:32:29.595Z,8.49
2018-11-28T10:34:57.524Z,8.41
2018-11-28T10:37:25.445Z,8.28
2018-11-28T10:39:53.366Z,8.21
2018-11-28T10:42:21.270Z,8.28
2018-11-28T10:44:49.172Z,8.21
2018-11-28T10:47:17.115Z,8.07
2018-11-28T10:49:45.025Z,7.93
2018-11-28T10:52:12.997Z,8.17
2018-11-28T10:54:40.914Z,8.36
2018-11-28T10:57:08.881Z,8.43
2018-11-28T10:59:36.753Z,8.38
2018-11-28T11:02:10.171Z,8.28
2018-11-28T11:04:43.304Z,8.26
2018-11-28T11:07:16.717Z,8.37
2018-11-28T11:09:50.127Z,8.48
2018-11-28T11:12:23.576Z,8.42
2018-11-28T11:14:51.518Z,8.56
2018-11-28T11:17:19.413Z,8.73
2018-11-28T11:19:47.492Z,8.82
2018-11-28T11:22:15.280Z,8.69
2018-11-28T11:24:43.166Z,8.66
2018-11-28T11:27:11.092Z,8.56
2018-11-28T11:29:39.074Z,8.50
2018-11-28T11:32:06.982Z,8.62
2018-11-28T11:34:34.902Z,8.48
2018-11-28T11:37:02.839Z,8.62
2018-11-28T11:39:30.757Z,8.68
2018-11-28T11:41:58.655Z,8.52
2018-11-28T11:44:26.558Z,8.54
2018-11-28T11:46:54.510Z,8.48
2018-11-28T11:49:22.416Z,8.38
2018-11-28T11:51:50.341Z,8.34
2018-11-28T11:54:18.234Z,8.18
2018-11-28T11:56:46.146Z,8.40
2018-11-28T11:59:14.063Z,8.38
2018-11-28T12:01:41.953Z,8.36
2018-11-28T12:04:09.917Z,8.48
2018-11-28T12:06:37.858Z,8.59
2018-11-28T12:09:08.637Z,8.77
2018-11-28T12:11:36.557Z,8.88
2018-11-28T12:14:04.881Z,8.82
2018-11-28T12:16:32.802Z,8.65
2018-11-28T12:19:00.824Z,8.65
2018-11-28T12:21:28.733Z,8.59
2018-11-28T12:23:56.618Z,8.71
2018-11-28T12:26:24.533Z,8.76
2018-11-28T12:28:52.421Z,8.65
2018-11-28T12:31:20.354Z,8.66
2018-11-28T12:33:48.267Z,8.59
2018-11-28T12:36:16.161Z,8.65
2018-11-28T12:38:44.095Z,8.80
2018-11-28T12:41:12.002Z,8.86
2018-11-28T12:43:39.930Z,8.94
2018-11-28T12:46:07.878Z,9.01
2018-11-28T12:48:35.830Z,8.77
2018-11-28T12:51:03.743Z,8.95
2018-11-28T12:53:31.645Z,8.83
2018-11-28T12:56:00.586Z,8.87
2018-11-28T12:58:28.475Z,8.83
2018-11-28T13:00:56.433Z,8.56
2018-11-28T13:03:24.338Z,8.75
2018-11-28T13:05:52.262Z,8.86
2018-11-28T13:08:20.165Z,8.88
2018-11-28T13:10:48.076Z,8.93
2018-11-28T13:13:15.998Z,9.03
2018-11-28T13:15:43.903Z,9.17
2018-11-28T13:18:11.865Z,8.98
2018-11-28T13:20:41.134Z,8.85
2018-11-28T13:23:10.237Z,8.91
2018-11-28T13:25:38.158Z,8.85
2018-11-28T13:28:06.270Z,9.01
2018-11-28T13:30:34.194Z,9.12
2018-11-28T13:33:02.102Z,9.07
2018-11-28T13:35:30.034Z,9.20
2018-11-28T13:38:04.894Z,9.03
2018-11-28T13:40:32.823Z,9.15
2018-11-28T13:43:00.745Z,8.97
2018-11-28T13:45:30.946Z,9.10
2018-11-28T13:47:58.879Z,8.99
2018-11-28T13:50:26.782Z,9.02
2018-11-28T13:52:55.485Z,9.23
2018-11-28T13:55:42.408Z,9.26
2018-11-28T13:57:55.181Z,9.15
2018-11-28T14:00:23.079Z,9.18
2018-11-28T14:02:50.975Z,9.19
2018-11-28T14:05:18.898Z,9.20
2018-11-28T14:07:46.802Z,9.00
2018-11-28T14:10:15.224Z,9.01
2018-11-28T14:12:43.141Z,9.03
2018-11-28T14:15:13.425Z,9.17
2018-11-28T14:17:41.589Z,9.23
2018-11-28T14:20:10.614Z,9.01
2018-11-28T14:22:39.433Z,9.17
2018-11-28T14:25:09.007Z,9.13
2018-11-28T14:27:36.709Z,9.19
2018-11-28T14:30:23.522Z,9.00
2018-11-28T14:32:51.979Z,9.05
2018-11-28T14:35:20.413Z,8.99
2018-11-28T14:37:48.319Z,9.04
2018-11-28T14:40:19.332Z,9.07
2018-11-28T14:43:03.106Z,9.08
2018-11-28T14:45:31.545Z,9.22
2018-11-28T14:47:59.450Z,9.08
2018-11-28T14:50:28.237Z,8.99
2018-11-28T14:52:57.386Z,8.84
2018-11-28T14:55:29.222Z,8.80
2018-11-28T14:57:57.154Z,8.82
2018-11-28T15:00:26.270Z,8.85
2018-11-28T15:02:55.509Z,8.88
2018-11-28T15:07:32.646Z,8.74
2018-11-28T15:10:00.581Z,8.28
2018-11-28T15:12:29.770Z,8.39
2018-11-28T15:14:57.676Z,8.37
2018-11-28T15:17:25.601Z,8.32
2018-11-28T15:19:53.496Z,8.30
2018-11-28T15:22:21.410Z,8.14
2018-11-28T15:24:49.345Z,8.21
2018-11-28T15:27:17.224Z,8.23
2018-11-28T15:29:45.133Z,8.12
2018-11-28T15:32:13.045Z,8.13
2018-11-28T15:34:40.934Z,8.13
2018-11-28T15:37:08.886Z,8.00
2018-11-28T15:39:36.782Z,7.97
2018-11-28T15:42:04.690Z,8.03
2018-11-28T15:44:32.586Z,8.17
2018-11-28T15:47:00.494Z,8.02
2018-11-28T15:49:28.421Z,8.08
2018-11-28T15:51:56.322Z,8.19
2018-11-28T15:54:24.253Z,8.18
2018-11-28T15:56:52.170Z,8.11
2018-11-28T15:59:20.057Z,8.15
2018-11-28T16:01:48.121Z,8.20
2018-11-28T16:04:15.882Z,8.10
2018-11-28T16:06:43.822Z,8.11
2018-11-28T16:09:17.117Z,8.15
2018-11-28T16:11:45.027Z,8.09
2018-11-28T16:14:12.959Z,7.96
2018-11-28T16:16:40.861Z,8.03
2018-11-28T16:19:08.786Z,8.06
2018-11-28T16:21:36.693Z,8.01
2018-11-28T16:24:04.616Z,8.00
2018-11-28T16:26:32.515Z,8.01
2018-11-28T16:29:00.460Z,7.92
2018-11-28T16:31:28.365Z,7.89
2018-11-28T16:33:56.258Z,7.78
2018-11-28T16:36:24.162Z,7.74
2018-11-28T16:38:52.087Z,7.75
2018-11-28T16:41:20.000Z,7.76
2018-11-28T16:43:47.934Z,7.77
2018-11-28T16:46:15.848Z,7.66
2018-11-28T16:48:43.770Z,7.68
2018-11-28T16:51:11.671Z,7.68
2018-11-28T16:53:39.609Z,7.62
2018-11-28T16:56:07.503Z,7.65
2018-11-28T16:58:35.405Z,7.55
2018-11-28T17:01:03.518Z,7.60
2018-11-28T17:03:31.435Z,7.72
2018-11-28T17:05:59.335Z,7.75
2018-11-28T17:08:27.231Z,7.67
2018-11-28T17:10:55.142Z,7.78
2018-11-28T17:13:23.034Z,7.78
2018-11-28T17:15:50.950Z,7.76
2018-11-28T17:18:18.845Z,7.67
2018-11-28T17:20:46.738Z,7.62
2018-11-28T17:23:14.617Z,7.78
2018-11-28T17:25:42.510Z,7.68
2018-11-28T17:28:10.436Z,7.57
2018-11-28T17:30:38.335Z,7.63
2018-11-28T17:33:06.417Z,7.69
2018-11-28T17:35:34.343Z,7.82
2018-11-28T17:38:02.269Z,7.81
2018-11-28T17:40:30.154Z,7.77
2018-11-28T17:42:59.173Z,7.86
2018-11-28T17:45:27.841Z,7.89
2018-11-28T17:47:55.745Z,7.77
2018-11-28T17:50:24.597Z,7.65
2018-11-28T17:53:08.868Z,7.55
2018-11-28T17:55:41.621Z,7.54
2018-11-28T17:58:09.518Z,7.54
2018-11-28T18:00:37.401Z,7.61
2018-11-28T18:03:05.314Z,7.72
2018-11-28T18:05:33.198Z,7.76
2018-11-28T18:08:01.115Z,7.79
2018-11-28T18:10:29.198Z,7.76
2018-11-28T18:13:03.574Z,7.77
2018-11-28T18:15:31.477Z,7.72
2018-11-28T18:17:59.377Z,7.68
2018-11-28T18:20:27.278Z,7.77
2018-11-28T18:22:55.173Z,7.81
2018-11-28T18:25:24.026Z,7.96
2018-11-28T18:27:52.033Z,7.91
2018-11-28T18:30:19.938Z,7.99
2018-11-28T18:32:47.842Z,8.08
2018-11-28T18:35:15.722Z,7.92
2018-11-28T18:37:43.635Z,7.95
2018-11-28T18:40:12.136Z,7.91
2018-11-28T18:42:40.911Z,8.02
2018-11-28T18:52:17.053Z,7.46
2018-11-28T18:54:44.958Z,7.63
2018-11-28T18:57:12.855Z,7.73
2018-11-28T18:59:40.921Z,7.85
2018-11-28T19:02:08.824Z,7.97
2018-11-28T19:04:36.710Z,7.95
2018-11-28T19:07:04.750Z,7.92
2018-11-28T19:09:37.945Z,7.96
2018-11-28T19:12:05.843Z,8.05
2018-11-28T19:14:33.824Z,8.02
2018-11-28T19:17:02.885Z,7.91
2018-11-28T19:19:30.795Z,7.95
2018-11-28T19:21:58.686Z,8.15
2018-11-28T19:24:26.614Z,8.16
2018-11-28T19:26:54.523Z,8.17
2018-11-28T19:29:22.448Z,8.16
2018-11-28T19:31:50.422Z,8.12
2018-11-28T19:34:18.452Z,8.26
2018-11-28T19:36:46.241Z,8.44
2018-11-28T19:39:14.185Z,8.52
2018-11-28T19:41:42.062Z,8.48
2018-11-28T19:44:09.950Z,8.52
2018-11-28T19:46:37.861Z,8.42
2018-11-28T19:49:05.846Z,8.47
2018-11-28T19:51:33.772Z,8.50
2018-11-28T19:56:42.862Z,8.42
2018-11-28T19:59:13.632Z,8.49
2018-11-28T20:01:41.793Z,8.64
2018-11-28T20:04:09.721Z,8.62
2018-11-28T20:06:37.624Z,8.44
2018-11-28T20:09:14.001Z,8.64
2018-11-28T20:11:41.925Z,8.56
2018-11-28T20:14:09.896Z,8.51
2018-11-28T20:16:37.811Z,8.63
2018-11-28T20:26:06.236Z,8.32
2018-11-28T20:28:34.141Z,8.55
2018-11-28T20:31:02.242Z,8.68
2018-11-28T20:33:30.262Z,8.78
2018-11-28T20:35:58.202Z,8.86
2018-11-28T20:38:29.993Z,8.84
2018-11-28T20:40:57.904Z,8.79
2018-11-28T20:43:25.863Z,8.85
2018-11-28T20:45:53.812Z,8.76
2018-11-28T20:48:21.715Z,8.73
2018-11-28T20:50:50.354Z,8.64
2018-11-28T20:53:19.155Z,8.54
2018-11-28T20:55:47.114Z,8.61
2018-11-28T20:58:15.037Z,8.69
2018-11-28T21:00:42.982Z,8.64
2018-11-28T21:03:10.919Z,8.74
2018-11-28T21:05:38.818Z,8.71
2018-11-28T21:08:08.442Z,8.79
2018-11-28T21:10:37.260Z,8.65
2018-11-28T21:13:06.581Z,8.73
2018-11-28T21:15:34.481Z,8.71
2018-11-28T21:18:02.398Z,8.78
2018-11-28T21:20:30.302Z,8.88
2018-11-28T21:23:00.509Z,8.95
2018-11-28T21:25:28.422Z,8.87
2018-11-28T21:27:56.317Z,8.94
2018-11-28T21:30:24.250Z,8.95
2018-11-28T21:32:53.114Z,8.96
2018-11-28T21:35:22.493Z,8.90
2018-11-28T21:37:50.414Z,8.91
2018-11-28T21:40:18.329Z,9.04
2018-11-28T21:42:46.221Z,9.11
2018-11-28T21:45:15.386Z,9.17
2018-11-28T21:47:43.289Z,9.13
2018-11-28T21:50:14.902Z,9.13
2018-11-28T21:52:42.801Z,8.99
2018-11-28T21:55:22.469Z,8.98
2018-11-28T21:57:50.354Z,8.99
2018-11-28T22:00:19.350Z,9.00
2018-11-28T22:02:47.245Z,9.05
2018-11-28T22:05:15.926Z,9.12
2018-11-28T22:07:43.822Z,9.29
2018-11-28T22:10:19.231Z,9.34
2018-11-28T22:12:47.188Z,9.33
2018-11-28T22:15:16.829Z,9.36
2018-11-28T22:18:01.525Z,9.46
2018-11-28T22:20:29.406Z,9.37
2018-11-28T22:22:57.314Z,9.26
2018-11-28T22:25:25.996Z,9.29
2018-11-28T22:27:53.990Z,9.29
2018-11-28T22:30:23.954Z,9.28
2018-11-28T22:32:51.864Z,9.28
2018-11-28T22:35:19.738Z,9.26
2018-11-28T22:37:47.653Z,9.33
2018-11-28T22:40:18.886Z,9.27
2018-11-28T22:42:46.779Z,9.40
2018-11-28T22:45:15.874Z,9.37
2018-11-28T22:47:43.773Z,9.43
2018-11-28T22:50:12.418Z,9.49
2018-11-28T22:52:40.333Z,9.46
2018-11-28T22:55:09.562Z,9.44
2018-11-28T22:57:37.488Z,9.62
2018-11-28T23:00:09.601Z,9.51
2018-11-28T23:02:49.378Z,9.63
2018-11-28T23:05:17.274Z,9.49
2018-11-28T23:07:45.271Z,9.57
2018-11-28T23:10:13.178Z,9.54
2018-11-28T23:12:41.062Z,9.68
2018-11-28T23:15:08.977Z,9.70
2018-11-28T23:17:36.882Z,9.74
2018-11-28T23:20:04.788Z,9.78
2018-11-28T23:22:32.681Z,9.76
2018-11-28T23:25:00.553Z,9.59
2018-11-28T23:27:28.485Z,9.65
2018-11-28T23:29:56.366Z,9.63
2018-11-28T23:32:24.245Z,9.60
2018-11-28T23:34:52.169Z,9.58
2018-11-28T23:37:20.046Z,9.62
2018-11-28T23:39:47.929Z,9.64
2018-11-28T23:42:15.833Z,9.65
2018-11-28T23:44:43.726Z,9.53
2018-11-28T23:47:11.645Z,9.53
2018-11-28T23:49:39.541Z,9.54
2018-11-28T23:52:07.421Z,9.57
2018-11-28T23:54:35.325Z,9.49
2018-11-28T23:57:03.217Z,9.42
2018-11-28T23:59:31.119Z,9.47
